Time;durP1;ratioP1;P1;durP2;ratioP2;P2;SDS_P1;SDS_P2;PMS_P1;PMS_P2;Temp;Humidity;BMP_temperature;BMP_pressure;BME280_temperature;BME280_humidity;BME280_pressure;Samples;Min_cycle;Max_cycle;Signal;HPM_P1;HPM_P2
2022/05/25 00:01:47;;;;;;;1999.90;999.90;;;;;;;22.64;55.74;95037.19;5026951;28;20021;-70
2022/05/25 00:04:12;;;;;;;1999.90;999.90;;;;;;;22.71;55.80;95039.91;5029834;28;20071;-69
2022/05/25 00:06:37;;;;;;;1999.90;999.90;;;;;;;22.77;55.42;95036.44;5029784;28;20097;-70
2022/05/25 00:09:04;;;;;;;1999.90;999.90;;;;;;;22.72;55.30;95025.97;5029273;28;20529;-70
2022/05/25 00:11:29;;;;;;;1999.90;999.90;;;;;;;22.75;55.37;95033.34;5029023;28;20025;-70
2022/05/25 00:13:54;;;;;;;1999.90;999.90;;;;;;;22.72;55.20;95019.75;5028351;28;20105;-70
2022/05/25 00:16:20;;;;;;;1999.90;999.90;;;;;;;22.84;55.27;95022.91;5023488;28;20026;-69
2022/05/25 00:21:30;;;;;;;1999.90;999.90;;;;;;;22.78;55.22;95004.69;5010317;28;20124;-70
2022/05/25 00:23:56;;;;;;;1999.90;999.90;;;;;;;22.92;55.52;95003.94;5009734;28;20022;-70
2022/05/25 00:26:21;;;;;;;1999.90;999.90;;;;;;;22.88;55.34;95001.25;5027944;28;20060;-70
2022/05/25 00:28:47;;;;;;;1999.90;999.90;;;;;;;22.78;55.34;94983.00;5027878;28;20553;-70
2022/05/25 00:31:12;;;;;;;1999.90;999.90;;;;;;;22.79;55.31;94996.16;5027586;28;20117;-70
2022/05/25 00:33:38;;;;;;;1999.90;999.90;;;;;;;22.69;55.61;94988.00;5028363;28;20072;-70
2022/05/25 00:36:04;;;;;;;1999.90;999.90;;;;;;;22.99;55.33;95014.81;5028122;28;20087;-71
2022/05/25 00:38:29;;;;;;;1999.90;999.90;;;;;;;22.88;55.49;94997.69;5028094;28;20029;-70
2022/05/25 00:40:57;;;;;;;1999.90;999.90;;;;;;;22.81;55.36;94985.69;5028316;28;20351;-70
2022/05/25 00:43:22;;;;;;;1999.90;999.90;;;;;;;22.88;55.61;94989.56;5028048;28;20486;-69
2022/05/25 00:46:02;;;;;;;1999.90;999.90;;;;;;;22.89;55.61;94996.59;5028458;28;20042;-70
2022/05/25 00:48:38;;;;;;;1999.90;999.90;;;;;;;22.85;55.50;94974.84;5029288;28;20025;-70
2022/05/25 00:51:21;;;;;;;1999.90;999.90;;;;;;;22.86;55.49;94991.91;5029564;28;20684;-70
2022/05/25 00:53:51;;;;;;;1999.90;999.90;;;;;;;22.81;55.55;94982.22;5028412;28;20071;-70
2022/05/25 00:56:20;;;;;;;1999.90;999.90;;;;;;;22.83;55.69;94994.22;5029032;28;20034;-70
2022/05/25 00:59:12;;;;;;;1999.90;999.90;;;;;;;22.84;55.52;94989.59;5027432;28;20030;-70
2022/05/25 01:01:38;;;;;;;1999.90;999.90;;;;;;;22.82;55.16;94992.66;5028417;28;20030;-70
2022/05/25 01:04:04;;;;;;;1999.90;999.90;;;;;;;22.77;55.40;94984.91;5029034;28;20150;-69
2022/05/25 01:06:53;;;;;;;1999.90;999.90;;;;;;;22.74;54.35;95001.97;5027218;28;20025;-70
2022/05/25 01:09:40;;;;;;;1999.90;999.90;;;;;;;22.81;55.29;95012.81;5019689;28;20049;-70
2022/05/25 01:12:31;;;;;;;1999.90;999.90;;;;;;;22.73;55.09;95013.97;5029151;28;20076;-71
2022/05/25 01:15:09;;;;;;;1999.90;999.90;;;;;;;22.66;54.20;95026.72;5031420;28;20032;-70
2022/05/25 01:17:49;;;;;;;1999.90;999.90;;;;;;;22.53;54.48;95037.16;5012901;28;20363;-70
2022/05/25 01:20:18;;;;;;;1999.90;999.90;;;;;;;22.46;54.99;95035.19;5011148;28;20083;-70
2022/05/25 01:23:01;;;;;;;1999.90;999.90;;;;;;;22.63;55.51;95033.72;5012864;28;20842;-70
2022/05/25 01:25:51;;;;;;;1999.90;999.90;;;;;;;22.72;55.36;95036.81;5012783;28;20034;-70
2022/05/25 01:28:22;;;;;;;1999.90;999.90;;;;;;;22.25;54.21;95035.13;5010848;28;20386;-70
2022/05/25 01:30:53;;;;;;;1999.90;999.90;;;;;;;20.92;53.78;95040.75;5028685;28;20074;-69
2022/05/25 01:33:27;;;;;;;1999.90;999.90;;;;;;;19.68;56.46;95044.28;5032575;28;20036;-70
2022/05/25 01:36:16;;;;;;;1999.90;999.90;;;;;;;20.33;54.91;95042.44;5032569;28;20028;-69
2022/05/25 01:38:50;;;;;;;1999.90;999.90;;;;;;;20.87;55.57;95030.28;5026104;28;20036;-69
2022/05/25 01:41:24;;;;;;;1999.90;999.90;;;;;;;21.62;56.46;95033.59;5032325;28;20069;-69
2022/05/25 01:43:52;;;;;;;1999.90;999.90;;;;;;;21.78;56.29;95026.75;5028182;28;20021;-70
2022/05/25 01:46:20;;;;;;;1999.90;999.90;;;;;;;20.91;55.69;95041.91;5032333;28;20025;-70
2022/05/25 01:48:47;;;;;;;1999.90;999.90;;;;;;;19.99;56.55;95045.09;5030599;28;20493;-70
2022/05/25 01:51:23;;;;;;;1999.90;999.90;;;;;;;19.32;57.46;95045.66;5030945;28;20060;-70
2022/05/25 01:53:53;;;;;;;1999.90;999.90;;;;;;;19.78;57.60;95047.50;5030880;28;20025;-70
2022/05/25 01:56:21;;;;;;;1999.90;999.90;;;;;;;19.68;58.23;95038.13;5031952;28;20367;-70
2022/05/25 01:58:50;;;;;;;1999.90;999.90;;;;;;;19.73;57.24;95000.81;5028500;28;20559;-70
2022/05/25 02:01:16;;;;;;;1999.90;999.90;;;;;;;19.98;57.90;95033.53;5030998;28;20438;-70
2022/05/25 02:06:49;;;;;;;1999.90;999.90;;;;;;;19.51;57.99;95041.31;5032162;28;20564;-70
2022/05/25 02:09:24;;;;;;;1999.90;999.90;;;;;;;19.92;59.14;95045.00;5031473;28;20115;-70
2022/05/25 02:12:05;;;;;;;1999.90;999.90;;;;;;;19.82;58.83;95040.25;5031160;28;20038;-69
2022/05/25 02:14:38;;;;;;;1999.90;999.90;;;;;;;20.55;58.32;95017.22;5031107;28;20025;-70
2022/05/25 02:17:26;;;;;;;1999.90;999.90;;;;;;;20.92;57.87;95041.53;5031568;28;20179;-70
2022/05/25 02:20:06;;;;;;;1999.90;999.90;;;;;;;20.47;58.49;95031.78;5031060;28;20022;-70
2022/05/25 02:22:31;;;;;;;1999.90;999.90;;;;;;;20.87;57.66;95066.19;5031547;28;20025;-69
2022/05/25 02:25:02;;;;;;;1999.90;999.90;;;;;;;21.34;57.73;95074.75;5029639;28;20112;-70
2022/05/25 02:27:41;;;;;;;1999.90;999.90;;;;;;;21.59;57.49;95056.78;5030778;28;20034;-70
2022/05/25 02:30:13;;;;;;;1999.90;999.90;;;;;;;20.91;56.54;94942.63;5010054;28;20080;-69
2022/05/25 02:32:46;;;;;;;1999.90;999.90;;;;;;;21.61;55.56;95022.00;5011586;28;20030;-69
2022/05/25 02:35:14;;;;;;;1999.90;999.90;;;;;;;22.04;56.57;95063.63;5010351;28;20029;-69
2022/05/25 02:37:40;;;;;;;1999.90;999.90;;;;;;;22.03;56.26;95056.66;5026944;28;20548;-70
2022/05/25 02:40:08;;;;;;;1999.90;999.90;;;;;;;21.88;56.57;95056.97;5030643;28;20398;-69
2022/05/25 02:42:37;;;;;;;1999.90;999.90;;;;;;;22.20;56.91;95065.28;5029499;28;20080;-69
2022/05/25 02:45:04;;;;;;;1999.90;999.90;;;;;;;22.33;56.95;95058.38;5030942;28;20442;-69
2022/05/25 02:47:29;;;;;;;1999.90;999.90;;;;;;;21.98;56.55;94994.72;5030990;28;20056;-69
2022/05/25 02:49:54;;;;;;;1999.90;999.90;;;;;;;22.33;56.43;95057.63;5029290;28;20056;-69
2022/05/25 02:52:20;;;;;;;1999.90;999.90;;;;;;;21.91;56.77;95026.44;5030826;28;20026;-69
2022/05/25 02:54:46;;;;;;;1999.90;999.90;;;;;;;22.02;56.77;95027.25;5030886;28;20354;-69
2022/05/25 02:57:12;;;;;;;1999.90;999.90;;;;;;;22.18;56.64;95052.13;5029748;28;20045;-69
2022/05/25 02:59:37;;;;;;;1999.90;999.90;;;;;;;22.55;56.64;95089.81;5030189;28;20057;-71
2022/05/25 03:02:04;;;;;;;1999.90;999.90;;;;;;;22.20;56.57;95040.91;5028444;28;20048;-71
2022/05/25 03:04:31;;;;;;;1999.90;999.90;;;;;;;22.43;56.56;95062.28;5030363;28;20025;-70
2022/05/25 03:06:56;;;;;;;1999.90;999.90;;;;;;;22.09;56.55;95018.38;5029229;28;20116;-70
2022/05/25 03:09:22;;;;;;;1999.90;999.90;;;;;;;22.44;56.59;95055.72;5029007;28;20159;-68
2022/05/25 03:11:47;;;;;;;1999.90;999.90;;;;;;;22.44;56.79;95061.91;5029323;28;20025;-71
2022/05/25 03:14:13;;;;;;;1999.90;999.90;;;;;;;22.39;56.27;95086.66;5030446;28;20033;-71
2022/05/25 03:16:38;;;;;;;1999.90;999.90;;;;;;;22.25;57.03;95067.63;5030553;28;20418;-70
2022/05/25 03:19:04;;;;;;;1999.90;999.90;;;;;;;22.24;56.79;95057.97;5029928;28;20039;-70
2022/05/25 03:21:29;;;;;;;1999.90;999.90;;;;;;;22.44;56.86;95089.00;5030425;28;20021;-71
2022/05/25 03:23:55;;;;;;;1999.90;999.90;;;;;;;21.80;56.36;95058.84;5030260;28;20498;-70
2022/05/25 03:26:20;;;;;;;1999.90;999.90;;;;;;;21.41;56.91;95034.25;5026236;28;20034;-71
2022/05/25 03:28:46;;;;;;;1999.90;999.90;;;;;;;20.66;55.30;95063.28;5029859;28;20061;-70
2022/05/25 03:31:11;;;;;;;1999.90;999.90;;;;;;;20.69;57.58;95047.09;5030363;28;20034;-70
2022/05/25 03:33:37;;;;;;;1999.90;999.90;;;;;;;19.92;57.48;95029.59;5030216;28;20585;-70
2022/05/25 03:36:03;;;;;;;1999.90;999.90;;;;;;;19.64;57.85;95083.16;5029405;28;20031;-71
2022/05/25 03:38:30;;;;;;;1999.90;999.90;;;;;;;19.34;59.70;95118.09;5028531;28;20025;-70
2022/05/25 03:40:58;;;;;;;1999.90;999.90;;;;;;;19.28;58.32;95050.22;5028984;28;20083;-70
2022/05/25 03:43:32;;;;;;;1999.90;999.90;;;;;;;19.66;59.84;95065.47;5029936;28;20095;-70
2022/05/25 03:45:58;;;;;;;1999.90;999.90;;;;;;;19.62;58.41;95112.44;5029828;28;20115;-70
2022/05/25 03:48:23;;;;;;;1999.90;999.90;;;;;;;18.85;59.89;95089.16;5029770;28;20068;-70
2022/05/25 03:50:49;;;;;;;1999.90;999.90;;;;;;;18.29;62.11;95020.38;5028377;28;20025;-69
2022/05/25 03:53:15;;;;;;;1999.90;999.90;;;;;;;18.67;60.24;95072.63;5028992;28;20668;-70
2022/05/25 03:55:41;;;;;;;1999.90;999.90;;;;;;;18.41;62.05;95033.66;5028173;28;20032;-70
2022/05/25 03:58:07;;;;;;;1999.90;999.90;;;;;;;19.07;61.00;95039.09;5029230;28;20029;-71
2022/05/25 04:00:34;;;;;;;1999.90;999.90;;;;;;;18.60;61.23;95030.19;5030099;28;20033;-70
2022/05/25 04:03:02;;;;;;;1999.90;999.90;;;;;;;18.72;62.05;95096.63;5029861;28;20453;-70
2022/05/25 04:05:29;;;;;;;1999.90;999.90;;;;;;;18.81;61.48;95158.38;5029631;28;20055;-70
2022/05/25 04:07:56;;;;;;;1999.90;999.90;;;;;;;17.85;63.49;95014.47;5027852;28;20101;-70
2022/05/25 04:10:22;;;;;;;1999.90;999.90;;;;;;;18.63;61.31;95083.34;5028208;28;20029;-70
2022/05/25 04:12:49;;;;;;;1999.90;999.90;;;;;;;19.21;60.62;95102.13;5029663;28;20096;-70
2022/05/25 04:15:17;;;;;;;1999.90;999.90;;;;;;;18.15;61.67;95007.41;5029749;28;20030;-70
2022/05/25 04:17:42;;;;;;;1999.90;999.90;;;;;;;18.80;61.35;95095.63;5029514;28;20816;-70
2022/05/25 04:20:09;;;;;;;1999.90;999.90;;;;;;;18.58;63.22;95163.66;5028089;28;20056;-70
2022/05/25 04:22:35;;;;;;;1999.90;999.90;;;;;;;17.91;63.28;95032.72;5029517;28;20033;-70
2022/05/25 04:25:04;;;;;;;1999.90;999.90;;;;;;;18.27;61.81;95013.78;5027876;28;20052;-70
2022/05/25 04:27:30;;;;;;;1999.90;999.90;;;;;;;17.99;64.67;95113.56;5029555;28;20100;-70
2022/05/25 04:29:55;;;;;;;1999.90;999.90;;;;;;;17.83;64.56;95122.47;5029192;28;20022;-71
2022/05/25 04:32:21;;;;;;;1999.90;999.90;;;;;;;17.56;64.91;95107.22;5027536;28;20497;-71
2022/05/25 04:34:46;;;;;;;1999.90;999.90;;;;;;;18.58;62.30;95134.03;5029489;28;20026;-70
2022/05/25 04:39:56;;;;;;;1999.90;999.90;;;;;;;18.31;64.02;95176.97;5028255;28;20099;-70
2022/05/25 04:42:21;;;;;;;1999.90;999.90;;;;;;;17.90;62.07;95044.56;5029452;28;20041;-70
2022/05/25 04:44:47;;;;;;;1999.90;999.90;;;;;;;17.28;64.21;95102.69;5029192;28;20029;-71
2022/05/25 04:47:13;;;;;;;1999.90;999.90;;;;;;;17.78;64.10;95133.50;5030140;28;20390;-70
2022/05/25 04:49:43;;;;;;;1999.90;999.90;;;;;;;18.80;62.19;95187.25;5032649;28;20026;-70
2022/05/25 04:52:09;;;;;;;1999.90;999.90;;;;;;;18.12;62.84;95142.72;5032937;28;20082;-70
2022/05/25 04:54:34;;;;;;;1999.90;999.90;;;;;;;17.84;63.27;95080.97;5032042;28;20029;-70
2022/05/25 04:59:44;;;;;;;1999.90;999.90;;;;;;;18.11;64.55;95178.81;5032846;28;20092;-70
2022/05/25 05:02:09;;;;;;;1999.90;999.90;;;;;;;17.88;62.88;95079.16;5032891;28;20025;-69
2022/05/25 05:04:35;;;;;;;1999.90;999.90;;;;;;;18.13;62.73;95125.44;5032932;28;20113;-70
2022/05/25 05:07:00;;;;;;;1999.90;999.90;;;;;;;17.79;63.13;95093.91;5033010;28;20025;-69
2022/05/25 05:09:25;;;;;;;1999.90;999.90;;;;;;;18.29;61.74;95095.75;5017592;28;20124;-69
2022/05/25 05:11:51;;;;;;;1999.90;999.90;;;;;;;18.28;62.24;95120.34;5013012;28;20614;-69
2022/05/25 05:14:16;;;;;;;1999.90;999.90;;;;;;;17.92;63.79;95138.44;5012801;28;20487;-74
2022/05/25 05:16:42;;;;;;;1999.90;999.90;;;;;;;18.52;63.58;95225.09;5012993;28;20057;-74
2022/05/25 05:19:08;;;;;;;1999.90;999.90;;;;;;;18.67;61.16;95129.97;5012340;28;20479;-71
2022/05/25 05:21:33;;;;;;;1999.90;999.90;;;;;;;18.27;62.49;95188.78;5012971;28;20026;-73
2022/05/25 05:23:59;;;;;;;1999.90;999.90;;;;;;;18.44;63.26;95242.25;5027965;28;20549;-73
2022/05/25 05:26:24;;;;;;;1999.90;999.90;;;;;;;18.23;63.76;95231.81;5032582;28;20063;-74
2022/05/25 05:28:53;;;;;;;1999.90;999.90;;;;;;;17.92;64.69;95256.84;5031743;28;20026;-74
2022/05/25 05:31:19;;;;;;;1999.90;999.90;;;;;;;18.45;64.03;95252.69;5033158;28;20033;-74
2022/05/25 05:33:45;;;;;;;1999.90;999.90;;;;;;;17.72;65.99;95242.47;5031132;28;20617;-73
2022/05/25 05:36:14;;;;;;;1999.90;999.90;;;;;;;18.67;64.46;95266.59;5030764;28;20026;-72
2022/05/25 05:38:53;;;;;;;1999.90;999.90;;;;;;;17.96;65.75;95267.66;5032056;28;20036;-72
2022/05/25 05:41:21;;;;;;;1999.90;999.90;;;;;;;17.65;65.94;95261.88;5032451;28;20374;-72
2022/05/25 05:43:48;;;;;;;1999.90;999.90;;;;;;;18.01;65.38;95257.41;5030947;28;20394;-71
2022/05/25 05:46:13;;;;;;;1999.90;999.90;;;;;;;18.16;64.35;95280.84;5032190;28;20430;-72
2022/05/25 05:48:39;;;;;;;1999.90;999.90;;;;;;;18.33;63.54;95255.50;5031971;28;20052;-72
2022/05/25 05:51:05;;;;;;;1999.90;999.90;;;;;;;18.33;64.35;95287.81;5031158;28;20057;-72
2022/05/25 05:53:31;;;;;;;1999.90;999.90;;;;;;;19.11;61.92;95286.06;5032146;28;20060;-71
2022/05/25 05:55:58;;;;;;;1999.90;999.90;;;;;;;19.08;62.31;95277.88;5032184;28;20057;-73
2022/05/25 05:58:42;;;;;;;1999.90;999.90;;;;;;;18.90;63.23;95297.19;5029070;28;20021;-71
2022/05/25 06:01:07;;;;;;;1999.90;999.90;;;;;;;19.14;62.76;95293.44;5030751;28;20040;-70
2022/05/25 06:03:32;;;;;;;1999.90;999.90;;;;;;;18.30;64.82;95291.19;5032233;28;20100;-71
2022/05/25 06:05:58;;;;;;;1999.90;999.90;;;;;;;18.28;63.85;95274.63;5020188;28;20076;-71
2022/05/25 06:08:24;;;;;;;1999.90;999.90;;;;;;;18.26;64.20;95321.84;5010557;28;20026;-71
2022/05/25 06:10:50;;;;;;;1999.90;999.90;;;;;;;17.55;66.11;95270.47;5012313;28;20025;-71
2022/05/25 06:13:16;;;;;;;1999.90;999.90;;;;;;;17.97;65.69;95321.16;5025064;28;20033;-71
2022/05/25 06:21:16;;;;;;;1999.90;999.90;;;;;;;18.47;63.96;95341.19;5031232;28;20115;-72
2022/05/25 06:23:41;;;;;;;1999.90;999.90;;;;;;;17.69;66.23;95334.63;5032436;28;20061;-72
2022/05/25 06:26:07;;;;;;;1999.90;999.90;;;;;;;17.14;66.65;95307.38;5029578;28;20032;-71
2022/05/25 06:28:34;;;;;;;1999.90;999.90;;;;;;;18.61;62.86;95301.13;5030550;28;20048;-74
2022/05/25 06:30:59;;;;;;;1999.90;999.90;;;;;;;18.72;63.57;95322.16;5030414;28;20035;-72
2022/05/25 06:33:25;;;;;;;1999.90;999.90;;;;;;;19.32;62.14;95355.03;5027240;28;20013;-72
2022/05/25 06:35:50;;;;;;;1999.90;999.90;;;;;;;19.27;61.19;95293.28;5030584;28;20025;-72
2022/05/25 06:38:16;;;;;;;1999.90;999.90;;;;;;;18.90;61.93;95288.31;5028509;28;20037;-72
2022/05/25 06:40:41;;;;;;;1999.90;999.90;;;;;;;18.63;63.02;95368.94;5011530;28;20026;-73
2022/05/25 06:43:06;;;;;;;1999.90;999.90;;;;;;;17.10;66.20;95322.66;5016013;28;20470;-73
2022/05/25 06:45:32;;;;;;;1999.90;999.90;;;;;;;18.56;63.10;95328.34;5031458;28;20029;-72
2022/05/25 06:47:58;;;;;;;1999.90;999.90;;;;;;;17.56;65.71;95370.78;5028894;28;20398;-72
2022/05/25 06:50:25;;;;;;;1999.90;999.90;;;;;;;17.73;66.38;95400.09;5030275;28;20033;-72
2022/05/25 06:52:51;;;;;;;1999.90;999.90;;;;;;;17.73;66.26;95385.88;5030874;28;20080;-73
2022/05/25 06:55:17;;;;;;;1999.90;999.90;;;;;;;17.13;66.27;95407.19;5028602;28;20025;-72
2022/05/25 06:57:42;;;;;;;1999.90;999.90;;;;;;;18.23;65.25;95414.09;5028367;28;20026;-69
2022/05/25 07:00:08;;;;;;;1999.90;999.90;;;;;;;18.48;62.99;95363.53;5026039;28;20025;-71
2022/05/25 07:02:34;;;;;;;1999.90;999.90;;;;;;;18.89;62.22;95384.56;5028424;28;20639;-69
2022/05/25 07:04:59;;;;;;;1999.90;999.90;;;;;;;18.81;62.31;95396.31;5027090;28;20043;-70
2022/05/25 07:07:25;;;;;;;1999.90;999.90;;;;;;;20.06;60.20;95384.63;5035796;28;20148;-70
2022/05/25 07:09:51;;;;;;;1999.90;999.90;;;;;;;20.60;59.28;95395.25;5022873;28;20386;-71
2022/05/25 07:12:16;;;;;;;1999.90;999.90;;;;;;;20.96;58.02;95374.94;5030724;28;20025;-70
2022/05/25 07:14:42;;;;;;;1999.90;999.90;;;;;;;21.48;58.19;95411.22;5030272;28;20041;-71
2022/05/25 07:17:08;;;;;;;1999.90;999.90;;;;;;;21.10;56.33;95382.47;5029566;28;20029;-70
2022/05/25 07:19:34;;;;;;;1999.90;999.90;;;;;;;21.35;57.47;95406.44;5026558;28;20109;-70
2022/05/25 07:21:59;;;;;;;1999.90;999.90;;;;;;;20.81;55.44;95415.66;5030252;28;20029;-70
2022/05/25 07:24:25;;;;;;;1999.90;999.90;;;;;;;18.98;58.84;95422.09;5027327;28;20053;-72
2022/05/25 07:26:50;;;;;;;1999.90;999.90;;;;;;;19.22;58.55;95399.53;5026683;28;20033;-77
2022/05/25 07:29:16;;;;;;;1999.90;999.90;;;;;;;19.29;58.35;95401.59;5030348;28;20045;-77
2022/05/25 07:31:51;;;;;;;1999.90;999.90;;;;;;;19.32;59.13;95425.16;5028565;28;20112;-71
2022/05/25 07:34:30;;;;;;;1999.90;999.90;;;;;;;20.31;55.70;95425.59;5030020;28;20040;-76
2022/05/25 07:37:05;;;;;;;1999.90;999.90;;;;;;;20.72;56.25;95429.41;5029132;28;20037;-75
2022/05/25 07:39:36;;;;;;;1999.90;999.90;;;;;;;21.72;57.29;95430.88;5029514;28;20490;-75
2022/05/25 07:42:03;;;;;;;1999.90;999.90;;;;;;;21.51;55.98;95404.31;5028426;28;20033;-77
2022/05/25 07:44:36;;;;;;;1999.90;999.90;;;;;;;21.74;56.25;95434.75;5028316;28;20021;-73
2022/05/25 07:47:02;;;;;;;1999.90;999.90;;;;;;;22.33;55.92;95428.88;5027883;28;20033;-74
2022/05/25 07:49:28;;;;;;;1999.90;999.90;;;;;;;22.89;55.07;95427.84;5026799;28;20033;-72
2022/05/25 07:51:54;;;;;;;1999.90;999.90;;;;;;;22.12;50.95;95422.06;5029886;28;20032;-75
2022/05/25 07:54:20;;;;;;;1999.90;999.90;;;;;;;22.98;54.93;95423.66;5028960;28;20383;-75
2022/05/25 07:56:46;;;;;;;1999.90;999.90;;;;;;;23.86;54.94;95419.91;5026478;28;20037;-74
2022/05/25 07:59:13;;;;;;;1999.90;999.90;;;;;;;24.32;51.36;95427.41;5022905;28;20032;-76
2022/05/25 08:07:22;;;;;;;1999.90;999.90;;;;;;;24.51;53.78;95409.97;5020244;28;20087;-75
2022/05/25 08:09:51;;;;;;;1999.90;999.90;;;;;;;24.83;53.66;95412.72;5023579;28;20028;-72
2022/05/25 08:12:17;;;;;;;1999.90;999.90;;;;;;;24.97;54.14;95420.09;5026866;28;20025;-75
2022/05/25 08:14:43;;;;;;;1999.90;999.90;;;;;;;25.15;53.97;95436.44;5029205;28;20026;-71
2022/05/25 08:17:08;;;;;;;1999.90;999.90;;;;;;;25.28;53.47;95415.78;5026239;28;20038;-75
2022/05/25 08:19:35;;;;;;;1999.90;999.90;;;;;;;25.65;53.40;95439.06;5028319;28;20453;-72
2022/05/25 08:22:01;;;;;;;1999.90;999.90;;;;;;;25.55;52.09;95435.22;5029512;28;20029;-75
2022/05/25 08:24:29;;;;;;;1999.90;999.90;;;;;;;25.98;52.20;95440.53;5030530;28;20120;-75
2022/05/25 08:26:54;;;;;;;1999.90;999.90;;;;;;;26.26;51.25;95420.53;5029194;28;20431;-77
2022/05/25 08:29:20;;;;;;;1999.90;999.90;;;;;;;26.77;50.93;95432.72;5029620;28;20102;-78
2022/05/25 08:31:45;;;;;;;1999.90;999.90;;;;;;;27.21;49.98;95425.72;5033392;28;20091;-77
2022/05/25 08:34:11;;;;;;;1999.90;999.90;;;;;;;26.94;47.92;95431.78;5033449;28;20520;-76
2022/05/25 08:36:36;;;;;;;1999.90;999.90;;;;;;;27.47;48.30;95446.94;5018450;28;20045;-75
2022/05/25 08:39:02;;;;;;;1999.90;999.90;;;;;;;27.69;48.89;95455.69;5011788;28;20030;-75
2022/05/25 08:41:34;;;;;;;1999.90;999.90;;;;;;;28.04;49.22;95445.53;5022655;28;20017;-76
2022/05/25 08:44:02;;;;;;;1999.90;999.90;;;;;;;28.45;48.49;95472.00;5027811;28;20108;-75
2022/05/25 08:46:31;;;;;;;1999.90;999.90;;;;;;;28.74;48.05;95464.94;5029827;28;20030;-78
2022/05/25 08:49:01;;;;;;;1999.90;999.90;;;;;;;27.85;45.06;95468.81;5031536;28;20037;-77
2022/05/25 08:51:29;;;;;;;1999.90;999.90;;;;;;;24.59;41.33;95446.13;5028260;28;20435;-79
2022/05/25 08:54:19;;;;;;;1999.90;999.90;;;;;;;26.78;47.70;95469.72;5027762;28;20056;-79
2022/05/25 08:57:16;;;;;;;1999.90;999.90;;;;;;;26.79;44.22;95471.28;5027633;28;20030;-80
2022/05/25 08:59:51;;;;;;;1999.90;999.90;;;;;;;27.14;46.84;95474.97;5033100;28;20506;-79
2022/05/25 09:02:28;;;;;;;1999.90;999.90;;;;;;;27.51;47.95;95481.66;5026992;28;20033;-76
2022/05/25 09:05:03;;;;;;;1999.90;999.90;;;;;;;27.57;45.63;95483.53;5022433;28;20022;-77
2022/05/25 09:08:10;;;;;;;1999.90;999.90;;;;;;;27.34;47.08;95481.41;5027223;28;20029;-77
2022/05/25 09:10:48;;;;;;;1999.90;999.90;;;;;;;25.72;46.51;95484.59;5023555;28;20029;-77
2022/05/25 09:13:27;;;;;;;1999.90;999.90;;;;;;;24.49;46.35;95471.34;5023659;28;20029;-76
2022/05/25 09:16:17;;;;;;;1999.90;999.90;;;;;;;22.54;46.04;95478.63;5011352;28;20032;-75
2022/05/25 09:19:05;;;;;;;1999.90;999.90;;;;;;;22.06;47.83;95477.72;5021021;28;20364;-75
2022/05/25 09:21:37;;;;;;;1999.90;999.90;;;;;;;23.27;51.45;95478.13;5020580;28;20076;-76
2022/05/25 09:24:06;;;;;;;;;;;;;;;23.17;49.99;95487.72;5020069;28;20025;-79
2022/05/25 09:26:32;;;;;;;1999.90;999.90;;;;;;;22.41;47.00;95487.41;5030058;28;20373;-77
2022/05/25 09:29:02;;;;;;;1999.90;999.90;;;;;;;23.85;51.53;95494.41;5028774;28;20035;-78
2022/05/25 09:31:33;;;;;;;1999.90;999.90;;;;;;;23.24;49.95;95498.66;5032469;28;20029;-78
2022/05/25 09:34:03;;;;;;;1999.90;999.90;;;;;;;21.38;48.37;95497.69;5031940;28;20109;-76
2022/05/25 09:36:44;;;;;;;1999.90;999.90;;;;;;;22.58;52.09;95498.44;5030342;28;20087;-74
2022/05/25 09:39:39;;;;;;;1999.90;999.90;;;;;;;20.63;51.36;95499.16;5030236;28;20033;-81
2022/05/25 09:42:06;;;;;;;1999.90;999.90;;;;;;;20.72;52.19;95492.34;5032145;28;20116;-84
2022/05/25 09:44:32;;;;;;;1999.90;999.90;;;;;;;20.63;52.78;95491.06;5033293;28;20394;-82
2022/05/25 09:47:01;;;;;;;1999.90;999.90;;;;;;;20.85;52.24;95495.66;5022374;28;20548;-81
2022/05/25 09:49:29;;;;;;;1999.90;999.90;;;;;;;21.89;51.69;95487.16;5032827;28;20033;-84
2022/05/25 09:52:02;;;;;;;1999.90;999.90;;;;;;;23.58;51.36;95487.63;5031919;28;20060;-81
2022/05/25 09:54:39;;;;;;;1999.90;999.90;;;;;;;23.85;48.60;95475.41;5031629;28;20026;-82
2022/05/25 09:57:25;;;;;;;1999.90;999.90;;;;;;;25.49;48.89;95495.91;5032848;28;20033;-81
2022/05/25 10:00:03;;;;;;;1999.90;999.90;;;;;;;24.96;47.57;95502.13;5031881;28;20124;-83
2022/05/25 10:02:36;;;;;;;1999.90;999.90;;;;;;;24.61;46.90;95500.91;5034148;28;20053;-84
2022/05/25 10:05:33;;;;;;;1999.90;999.90;;;;;;;22.39;48.80;95505.97;5027505;28;20105;-82
2022/05/25 10:08:08;;;;;;;1999.90;999.90;;;;;;;23.41;43.00;95513.50;5019587;28;20072;-80
2022/05/25 10:10:56;;;;;;;1999.90;999.90;;;;;;;23.56;45.57;95506.25;5027462;28;20129;-75
2022/05/25 10:13:41;;;;;;;1999.90;999.90;;;;;;;23.45;45.27;95500.75;5016782;28;20991;-80
2022/05/25 10:16:39;;;;;;;1999.90;999.90;;;;;;;24.80;46.70;95502.50;5032572;28;20026;-83
2022/05/25 10:19:09;;;;;;;1999.90;999.90;;;;;;;25.12;43.83;95495.16;4997485;28;20037;-81
2022/05/25 10:21:37;;;;;;;1999.90;999.90;;;;;;;25.01;45.44;95493.56;5033991;28;20030;-80
2022/05/25 10:24:14;;;;;;;1999.90;999.90;;;;;;;26.37;42.83;95503.06;5032216;28;20033;-81
2022/05/25 10:26:46;;;;;;;1999.90;999.90;;;;;;;27.29;38.23;95487.31;5033326;28;20492;-82
2022/05/25 10:36:45;;;;;;;1999.90;999.90;;;;;;;26.99;39.36;95484.41;5028378;28;20033;-83
2022/05/25 10:38:21;;;;;;;1999.90;999.90;;;;;;;23.41;47.50;95480.16;5031069;28;20060;-83
2022/05/25 10:40:47;;;;;;;1999.90;999.90;;;;;;;24.98;46.74;95491.63;5033005;28;20025;-78
2022/05/25 10:43:23;;;;;;;1999.90;999.90;;;;;;;26.16;47.64;95484.09;5030414;28;20032;-77
2022/05/25 10:45:53;;;;;;;1999.90;999.90;;;;;;;25.81;41.90;95483.03;5026610;28;20116;-73
2022/05/25 10:48:23;;;;;;;1999.90;999.90;;;;;;;25.08;38.32;95494.41;5029626;28;20037;-75
2022/05/25 10:51:00;;;;;;;1999.90;999.90;;;;;;;25.47;40.02;95499.03;5031206;28;20482;-74
2022/05/25 10:54:44;;;;;;;1999.90;999.90;;;;;;;23.29;42.17;95503.72;5029344;28;20033;-70
2022/05/25 10:56:47;;;;;;;1999.90;999.90;;;;;;;23.82;43.75;95488.94;5026617;28;20080;-76
2022/05/25 10:59:24;;;;;;;1999.90;999.90;;;;;;;26.44;44.46;95500.31;5030540;28;20482;-78
2022/05/25 11:02:42;;;;;;;1999.90;999.90;;;;;;;27.33;40.32;95498.19;5030197;28;20455;-75
2022/05/25 11:05:44;;;;;;;1999.90;999.90;;;;;;;28.31;42.01;95496.81;4992926;28;20045;-78
2022/05/25 11:08:46;;;;;;;1999.90;999.90;;;;;;;28.54;43.25;95505.13;5011156;28;20053;-76
2022/05/25 11:12:07;;;;;;;1999.90;999.90;;;;;;;27.85;33.68;95500.84;5012617;28;20444;-82
2022/05/25 11:14:43;;;;;;;1999.90;999.90;;;;;;;24.75;38.86;95509.09;4986452;28;20483;-76
2022/05/25 11:17:40;;;;;;;1999.90;999.90;;;;;;;25.10;37.47;95502.16;5020635;28;20171;-81
2022/05/25 11:20:18;;;;;;;1999.90;999.90;;;;;;;26.55;35.79;95504.94;5030527;28;20036;-81
2022/05/25 11:23:01;;;;;;;1999.90;999.90;;;;;;;26.18;38.12;95503.53;5029169;28;20025;-78
2022/05/25 11:25:26;;;;;;;1999.90;999.90;;;;;;;25.60;35.51;95513.81;5027109;28;20113;-81
2022/05/25 11:28:18;;;;;;;1999.90;999.90;;;;;;;28.02;35.14;95512.78;5012206;28;20104;-85
2022/05/25 11:30:52;;;;;;;1999.90;999.90;;;;;;;29.15;39.95;95509.75;5028927;28;20104;-75
2022/05/25 11:33:23;;;;;;;1999.90;999.90;;;;;;;27.96;31.17;95510.50;5029871;28;20029;-75
2022/05/25 11:36:03;;;;;;;1999.90;999.90;;;;;;;28.60;37.39;95505.44;5030029;28;20029;-76
2022/05/25 11:38:34;;;;;;;1999.90;999.90;;;;;;;29.83;39.74;95512.13;5022539;28;20486;-76
2022/05/25 11:41:05;;;;;;;1999.90;999.90;;;;;;;30.38;38.87;95515.41;5029932;28;20029;-78